createdAt,value
2018-10-04T00:02:01.733Z,102138.47
2018-10-04T00:04:28.665Z,102134.73
2018-10-04T00:06:55.625Z,102129.20
2018-10-04T00:09:22.567Z,102130.73
2018-10-04T00:11:49.504Z,102143.91
2018-10-04T00:14:16.442Z,102133.81
2018-10-04T00:16:43.374Z,102136.34
2018-10-04T00:19:10.349Z,102125.37
2018-10-04T00:21:37.314Z,102126.55
2018-10-04T00:24:04.251Z,102130.94
2018-10-04T00:26:31.193Z,102131.80
2018-10-04T00:28:58.142Z,102133.16
2018-10-04T00:31:25.097Z,102129.42
2018-10-04T00:33:52.062Z,102129.94
2018-10-04T00:36:19.006Z,102133.16
2018-10-04T00:38:45.941Z,102130.28
2018-10-04T00:41:12.878Z,102129.77
2018-10-04T00:43:39.851Z,102131.49
2018-10-04T00:46:06.928Z,102126.10
2018-10-04T00:48:33.873Z,102124.75
2018-10-04T00:51:00.806Z,102129.83
2018-10-04T00:53:27.758Z,102129.66
2018-10-04T00:55:54.698Z,102127.63
2018-10-04T00:58:21.823Z,102124.44
2018-10-04T01:00:48.757Z,102120.39
2018-10-04T01:03:15.707Z,102117.17
2018-10-04T01:05:42.655Z,102119.88
2018-10-04T01:08:09.590Z,102120.05
2018-10-04T01:10:36.513Z,102121.87
2018-10-04T01:13:03.474Z,102126.45
2018-10-04T01:15:30.399Z,102127.28
2018-10-04T01:18:09.006Z,102123.41
2018-10-04T01:20:35.950Z,102114.80
2018-10-04T01:23:02.897Z,102111.58
2018-10-04T01:25:29.835Z,102111.58
2018-10-04T01:27:56.783Z,102101.09
2018-10-04T01:30:23.711Z,102105.35
2018-10-04T01:32:50.702Z,102100.09
2018-10-04T01:35:17.643Z,102098.40
2018-10-04T01:37:44.588Z,102100.09
2018-10-04T01:40:11.523Z,102094.70
2018-10-04T01:42:38.462Z,102089.96
2018-10-04T01:45:05.395Z,102081.84
2018-10-04T01:47:32.342Z,102087.27
2018-10-04T01:49:59.273Z,102081.52
2018-10-04T01:52:26.185Z,102076.48
2018-10-04T01:54:53.130Z,102078.31
2018-10-04T01:57:20.131Z,102078.31
2018-10-04T01:59:47.078Z,102071.08
2018-10-04T02:02:14.016Z,102073.13
2018-10-04T02:04:40.957Z,102065.72
2018-10-04T02:07:07.897Z,102069.25
2018-10-04T02:09:34.838Z,102060.98
2018-10-04T02:12:01.852Z,102053.75
2018-10-04T02:14:28.698Z,102055.44
2018-10-04T02:16:55.660Z,102049.53
2018-10-04T02:19:22.612Z,102054.61
2018-10-04T02:21:49.537Z,102061.18
2018-10-04T02:24:16.473Z,102059.34
2018-10-04T02:26:43.399Z,102061.38
2018-10-04T02:29:10.348Z,102059.38
2018-10-04T02:31:37.267Z,102052.42
2018-10-04T02:34:04.218Z,102046.34
2018-10-04T02:36:31.171Z,102053.63
2018-10-04T02:38:58.111Z,102058.03
2018-10-04T02:41:25.064Z,102056.33
2018-10-04T02:43:51.997Z,102054.31
2018-10-04T02:46:18.925Z,102064.63
2018-10-04T02:48:45.865Z,102064.62
2018-10-04T02:51:12.805Z,102057.19
2018-10-04T02:53:39.734Z,102063.93
2018-10-04T02:56:12.529Z,102056.67
2018-10-04T02:58:39.476Z,102063.76
2018-10-04T03:01:06.424Z,102038.94
2018-10-04T03:03:33.382Z,102044.84
2018-10-04T03:06:00.306Z,102042.15
2018-10-04T03:08:27.267Z,102044.19
2018-10-04T03:10:54.206Z,102041.15
2018-10-04T03:13:21.150Z,102048.58
2018-10-04T03:15:48.297Z,102047.06
2018-10-04T03:18:15.242Z,102046.20
2018-10-04T03:20:42.193Z,102044.53
2018-10-04T03:23:09.176Z,102045.88
2018-10-04T03:25:36.106Z,102046.56
2018-10-04T03:28:03.046Z,102048.26
2018-10-04T03:30:30.030Z,102050.09
2018-10-04T03:32:56.960Z,102051.97
2018-10-04T03:35:23.930Z,102059.40
2018-10-04T03:37:50.862Z,102052.48
2018-10-04T03:42:51.829Z,102050.98
2018-10-04T03:45:18.840Z,102052.50
2018-10-04T03:47:45.870Z,102046.09
2018-10-04T03:50:12.831Z,102048.62
2018-10-04T03:52:39.814Z,102044.09
2018-10-04T03:55:07.039Z,102047.95
2018-10-04T03:57:33.982Z,102043.56
2018-10-04T04:00:01.001Z,102039.38
2018-10-04T04:02:28.206Z,102037.48
2018-10-04T04:04:55.147Z,102036.81
2018-10-04T04:07:22.110Z,102037.48
2018-10-04T04:09:49.053Z,102040.87
2018-10-04T04:12:15.990Z,102041.21
2018-10-04T04:14:42.949Z,102040.72
2018-10-04T04:17:09.906Z,102040.89
2018-10-04T04:19:36.860Z,102036.50
2018-10-04T04:22:03.814Z,102034.80
2018-10-04T04:24:30.753Z,102032.11
2018-10-04T04:26:57.693Z,102036.81
2018-10-04T04:29:24.644Z,102031.59
2018-10-04T04:31:51.566Z,102029.91
2018-10-04T04:34:18.525Z,102030.39
2018-10-04T04:36:45.458Z,102034.64
2018-10-04T04:39:12.394Z,102037.14
2018-10-04T04:41:39.338Z,102039.84
2018-10-04T04:44:06.301Z,102035.62
2018-10-04T04:46:33.305Z,102037.15
2018-10-04T04:49:00.197Z,102043.23
2018-10-04T04:51:33.861Z,102034.40
2018-10-04T04:54:00.810Z,102041.86
2018-10-04T04:56:27.764Z,102045.22
2018-10-04T04:58:54.736Z,102048.43
2018-10-04T05:01:21.700Z,102049.78
2018-10-04T05:03:48.661Z,102046.22
2018-10-04T05:06:15.680Z,102043.52
2018-10-04T05:08:42.562Z,102051.62
2018-10-04T05:11:09.525Z,102048.75
2018-10-04T05:13:36.502Z,102045.19
2018-10-04T05:16:03.550Z,102048.75
2018-10-04T05:18:30.457Z,102049.58
2018-10-04T05:20:57.466Z,102051.77
2018-10-04T05:23:24.410Z,102054.98
2018-10-04T05:25:51.345Z,102047.23
2018-10-04T05:28:18.302Z,102045.53
2018-10-04T05:30:45.268Z,102048.09
2018-10-04T05:33:12.201Z,102048.43
2018-10-04T05:35:39.134Z,102054.48
2018-10-04T05:38:06.070Z,102050.95
2018-10-04T05:43:06.785Z,102055.34
2018-10-04T05:45:33.860Z,102057.05
2018-10-04T05:48:00.681Z,102055.03
2018-10-04T05:50:27.621Z,102049.63
2018-10-04T05:52:54.625Z,102058.27
2018-10-04T05:55:21.474Z,102057.75
2018-10-04T05:57:48.417Z,102058.27
2018-10-04T06:00:28.249Z,102047.94
2018-10-04T06:02:55.237Z,102050.17
2018-10-04T06:05:22.201Z,102060.79
2018-10-04T06:07:49.169Z,102058.78
2018-10-04T06:10:16.089Z,102058.11
2018-10-04T06:12:43.011Z,102066.21
2018-10-04T06:15:10.047Z,102071.94
2018-10-04T06:17:36.906Z,102065.88
2018-10-04T06:20:03.850Z,102075.16
2018-10-04T06:22:30.787Z,102068.75
2018-10-04T06:24:57.698Z,102068.58
2018-10-04T06:27:24.626Z,102070.63
2018-10-04T06:29:51.653Z,102080.59
2018-10-04T06:32:18.608Z,102086.48
2018-10-04T06:34:45.533Z,102087.84
2018-10-04T06:37:12.471Z,102083.78
2018-10-04T06:39:39.426Z,102091.91
2018-10-04T06:42:06.364Z,102089.57
2018-10-04T06:44:33.294Z,102089.57
2018-10-04T06:47:00.237Z,102090.91
2018-10-04T06:49:27.170Z,102092.60
2018-10-04T06:51:54.098Z,102092.62
2018-10-04T06:54:21.030Z,102092.95
2018-10-04T06:56:47.944Z,102094.32
2018-10-04T06:59:14.897Z,102100.23
2018-10-04T07:01:41.845Z,102105.31
2018-10-04T07:04:08.790Z,102110.56
2018-10-04T07:06:35.727Z,102108.86
2018-10-04T07:09:04.180Z,102108.56
2018-10-04T07:11:31.106Z,102105.52
2018-10-04T07:13:58.070Z,102105.88
2018-10-04T07:16:24.977Z,102106.56
2018-10-04T07:18:51.922Z,102108.07
2018-10-04T07:21:18.846Z,102107.91
2018-10-04T07:23:45.779Z,102113.67
2018-10-04T07:26:12.695Z,102111.13
2018-10-04T07:28:39.667Z,102113.81
2018-10-04T07:31:06.910Z,102115.70
2018-10-04T07:33:33.846Z,102116.88
2018-10-04T07:36:00.774Z,102118.06
2018-10-04T07:38:27.686Z,102124.30
2018-10-04T07:40:54.685Z,102120.74
2018-10-04T07:43:21.612Z,102125.48
2018-10-04T07:45:48.537Z,102119.25
2018-10-04T07:48:15.446Z,102108.92
2018-10-04T07:50:42.627Z,102116.34
2018-10-04T07:53:09.581Z,102113.98
2018-10-04T07:55:36.543Z,102116.19
2018-10-04T07:58:03.571Z,102116.66
2018-10-04T08:00:30.486Z,102121.73
2018-10-04T08:02:57.427Z,102109.89
2018-10-04T08:05:24.341Z,102115.95
2018-10-04T08:07:51.262Z,102125.53
2018-10-04T08:10:18.169Z,102123.84
2018-10-04T08:12:45.053Z,102123.31
2018-10-04T08:15:11.996Z,102133.12
2018-10-04T08:17:38.937Z,102131.23
2018-10-04T08:20:06.354Z,102122.25
2018-10-04T08:22:33.302Z,102126.25
2018-10-04T08:25:00.226Z,102131.02
2018-10-04T08:27:27.191Z,102141.31
2018-10-04T08:29:54.081Z,102139.23
2018-10-04T08:32:20.989Z,102142.41
2018-10-04T08:34:47.919Z,102141.38
2018-10-04T08:37:15.128Z,102142.06
2018-10-04T08:39:42.038Z,102139.16
2018-10-04T08:42:09.065Z,102138.97
2018-10-04T08:44:36.197Z,102134.07
2018-10-04T08:47:03.116Z,102135.22
2018-10-04T08:49:30.093Z,102131.63
2018-10-04T08:51:57.033Z,102131.78
2018-10-04T08:54:29.926Z,102130.88
2018-10-04T08:56:57.264Z,102132.20
2018-10-04T08:59:24.257Z,102134.70
2018-10-04T09:01:51.186Z,102126.61
2018-10-04T09:04:18.161Z,102126.34
2018-10-04T09:06:45.058Z,102131.44
2018-10-04T09:09:11.989Z,102138.83
2018-10-04T09:11:38.909Z,102131.80
2018-10-04T09:14:05.884Z,102136.63
2018-10-04T09:16:32.811Z,102135.42
2018-10-04T09:18:59.864Z,102138.31
2018-10-04T09:21:26.781Z,102135.05
2018-10-04T09:23:53.713Z,102133.92
2018-10-04T09:26:20.763Z,102132.79
2018-10-04T09:28:53.945Z,102131.10
2018-10-04T09:31:26.610Z,102129.88
2018-10-04T09:33:53.545Z,102139.68
2018-10-04T09:36:20.477Z,102141.95
2018-10-04T09:38:49.065Z,102142.17
2018-10-04T09:41:16.037Z,102145.58
2018-10-04T09:43:42.953Z,102155.91
2018-10-04T09:46:09.925Z,102157.26
2018-10-04T09:48:37.702Z,102156.08
2018-10-04T09:51:10.420Z,102151.03
2018-10-04T09:53:43.702Z,102149.92
2018-10-04T09:56:49.255Z,102147.20
2018-10-04T09:59:16.205Z,102153.05
2018-10-04T10:01:50.757Z,102145.80
2018-10-04T10:04:17.725Z,102140.02
2018-10-04T10:06:44.865Z,102138.89
2018-10-04T10:09:11.993Z,102143.10
2018-10-04T10:11:38.947Z,102146.05
2018-10-04T10:14:05.954Z,102144.88
2018-10-04T10:16:33.213Z,102138.44
2018-10-04T10:19:00.127Z,102142.84
2018-10-04T10:21:27.039Z,102142.64
2018-10-04T10:23:53.958Z,102142.27
2018-10-04T10:26:20.954Z,102145.68
2018-10-04T10:28:47.904Z,102146.47
2018-10-04T10:31:14.933Z,102144.30
2018-10-04T10:33:41.865Z,102145.66
2018-10-04T10:36:08.821Z,102141.73
2018-10-04T10:38:35.761Z,102134.86
2018-10-04T10:41:02.709Z,102143.30
2018-10-04T10:43:29.659Z,102134.59
2018-10-04T10:45:56.756Z,102128.96
2018-10-04T10:48:23.657Z,102131.48
2018-10-04T10:50:51.262Z,102130.81
2018-10-04T10:53:19.124Z,102125.81
2018-10-04T10:55:46.017Z,102120.08
2018-10-04T10:58:13.181Z,102132.16
2018-10-04T11:00:40.206Z,102131.66
2018-10-04T11:03:07.122Z,102125.84
2018-10-04T11:05:34.277Z,102135.31
2018-10-04T11:08:01.214Z,102127.27
2018-10-04T11:10:28.401Z,102126.02
2018-10-04T11:12:55.311Z,102125.89
2018-10-04T11:15:22.234Z,102120.23
2018-10-04T11:17:49.208Z,102115.48
2018-10-04T11:20:16.110Z,102112.13
2018-10-04T11:22:43.057Z,102111.75
2018-10-04T11:25:09.982Z,102114.06
2018-10-04T11:27:36.915Z,102112.80
2018-10-04T11:30:03.951Z,102115.97
2018-10-04T11:32:30.877Z,102119.91
2018-10-04T11:34:58.098Z,102116.17
2018-10-04T11:37:25.058Z,102115.54
2018-10-04T11:39:51.990Z,102115.41
2018-10-04T11:42:19.114Z,102121.17
2018-10-04T11:44:50.070Z,102120.59
2018-10-04T11:47:23.405Z,102108.49
2018-10-04T11:49:50.401Z,102105.06
2018-10-04T11:52:17.461Z,102111.84
2018-10-04T11:54:44.462Z,102108.92
2018-10-04T11:57:12.236Z,102104.81
2018-10-04T11:59:39.170Z,102105.80
2018-10-04T12:02:06.162Z,102106.28
2018-10-04T12:04:33.114Z,102109.72
2018-10-04T12:07:00.115Z,102104.36
2018-10-04T12:09:27.014Z,102106.23
2018-10-04T12:11:53.951Z,102103.34
2018-10-04T12:14:20.889Z,102105.17
2018-10-04T12:16:47.833Z,102104.13
2018-10-04T12:19:14.750Z,102099.43
2018-10-04T12:21:48.656Z,102102.15
2018-10-04T12:24:15.841Z,102101.53
2018-10-04T12:26:42.798Z,102100.91
2018-10-04T12:29:09.819Z,102098.78
2018-10-04T12:31:36.770Z,102105.46
2018-10-04T12:34:03.772Z,102102.53
2018-10-04T12:36:30.737Z,102103.10
2018-10-04T12:38:58.754Z,102102.56
2018-10-04T12:41:29.473Z,102107.20
2018-10-04T12:43:58.294Z,102110.58
2018-10-04T12:46:27.796Z,102099.54
2018-10-04T12:48:57.687Z,102100.61
2018-10-04T12:51:24.829Z,102103.60
2018-10-04T12:53:54.826Z,102090.00
2018-10-04T12:56:24.964Z,102102.86
2018-10-04T12:58:52.109Z,102102.41
2018-10-04T13:01:19.083Z,102098.41
2018-10-04T13:03:46.030Z,102094.51
2018-10-04T13:06:13.009Z,102100.42
2018-10-04T13:08:40.118Z,102096.97
2018-10-04T13:11:07.248Z,102097.50
2018-10-04T13:13:34.249Z,102100.28
2018-10-04T13:16:01.218Z,102096.83
2018-10-04T13:18:28.160Z,102091.98
2018-10-04T13:20:56.432Z,102092.30
2018-10-04T13:23:23.388Z,102091.92
2018-10-04T13:25:50.367Z,102096.83
2018-10-04T13:28:17.382Z,102093.94
2018-10-04T13:30:44.345Z,102093.98
2018-10-04T13:33:11.314Z,102097.42
2018-10-04T13:35:38.258Z,102092.06
2018-10-04T13:38:05.509Z,102092.89
2018-10-04T13:40:32.458Z,102087.28
2018-10-04T13:42:59.401Z,102086.80
2018-10-04T13:47:57.514Z,102087.52
2018-10-04T13:50:32.133Z,102083.44
2018-10-04T13:52:59.333Z,102084.30
2018-10-04T13:55:26.385Z,102086.16
2018-10-04T13:57:53.425Z,102083.91
2018-10-04T14:00:20.379Z,102081.84
2018-10-04T14:02:47.350Z,102076.67
2018-10-04T14:05:14.289Z,102073.03
2018-10-04T14:07:41.677Z,102074.05
2018-10-04T14:10:08.617Z,102078.09
2018-10-04T14:12:35.592Z,102070.73
2018-10-04T14:15:02.589Z,102072.91
2018-10-04T14:17:29.613Z,102075.07
2018-10-04T14:19:56.561Z,102073.32
2018-10-04T14:22:23.577Z,102072.44
2018-10-04T14:24:50.627Z,102071.07
2018-10-04T14:27:17.619Z,102074.19
2018-10-04T14:29:44.560Z,102065.41
2018-10-04T14:32:11.566Z,102063.91
2018-10-04T14:34:38.489Z,102065.39
2018-10-04T14:37:05.444Z,102066.05
2018-10-04T14:39:32.462Z,102057.13
2018-10-04T14:41:59.399Z,102063.61
2018-10-04T14:44:26.801Z,102054.86
2018-10-04T14:46:53.785Z,102061.48
2018-10-04T14:49:20.726Z,102053.83
2018-10-04T14:51:47.689Z,102057.91
2018-10-04T14:54:14.647Z,102053.44
2018-10-04T14:56:41.568Z,102050.72
2018-10-04T14:59:08.529Z,102050.83
2018-10-04T15:01:35.463Z,102050.28
2018-10-04T15:04:02.407Z,102049.12
2018-10-04T15:06:29.349Z,102050.78
2018-10-04T15:08:56.296Z,102047.83
2018-10-04T15:11:23.269Z,102041.03
2018-10-04T15:13:50.173Z,102040.64
2018-10-04T15:16:17.097Z,102039.61
2018-10-04T15:18:44.057Z,102039.07
2018-10-04T15:21:11.012Z,102041.03
2018-10-04T15:23:37.970Z,102042.45
2018-10-04T15:26:04.918Z,102035.86
2018-10-04T15:28:31.867Z,102039.80
2018-10-04T15:30:58.871Z,102029.23
2018-10-04T15:33:25.797Z,102039.08
2018-10-04T15:35:52.743Z,102026.80
2018-10-04T15:38:19.702Z,102028.00
2018-10-04T15:40:46.654Z,102016.36
2018-10-04T15:43:13.622Z,102021.16
2018-10-04T15:45:40.597Z,102022.57
2018-10-04T15:48:07.552Z,102018.38
2018-10-04T15:50:34.536Z,102022.52
2018-10-04T15:53:01.507Z,102025.83
2018-10-04T15:55:28.458Z,102028.81
2018-10-04T15:57:55.512Z,102017.28
2018-10-04T16:00:22.449Z,102015.92
2018-10-04T16:02:49.374Z,102016.34
2018-10-04T16:05:16.341Z,102012.97
2018-10-04T16:07:43.284Z,102016.39
2018-10-04T16:10:10.282Z,102010.96
2018-10-04T16:12:37.220Z,102007.14
2018-10-04T16:15:06.849Z,102015.68
2018-10-04T16:17:33.808Z,102010.50
2018-10-04T16:20:00.762Z,102011.74
2018-10-04T16:22:27.712Z,102003.31
2018-10-04T16:24:54.741Z,102004.23
2018-10-04T16:27:27.602Z,102008.80
2018-10-04T16:29:54.545Z,101996.78
2018-10-04T16:32:21.505Z,102007.20
2018-10-04T16:34:48.473Z,102000.08
2018-10-04T16:37:15.418Z,102001.50
2018-10-04T16:39:42.342Z,102000.72
2018-10-04T16:42:09.273Z,102006.28
2018-10-04T16:44:36.214Z,102008.39
2018-10-04T16:47:03.151Z,102004.94
2018-10-04T16:49:30.117Z,102007.53
2018-10-04T16:51:57.062Z,102008.89
2018-10-04T16:54:24.074Z,102009.34
2018-10-04T16:56:51.041Z,102015.34
2018-10-04T16:59:18.016Z,102006.34
2018-10-04T17:01:44.961Z,102007.20
2018-10-04T17:04:11.911Z,102006.34
2018-10-04T17:06:38.833Z,102004.32
2018-10-04T17:09:06.990Z,102007.41
2018-10-04T17:11:33.938Z,102002.71
2018-10-04T17:14:00.878Z,102012.34
2018-10-04T17:16:27.797Z,102004.91
2018-10-04T17:18:54.738Z,101998.98
2018-10-04T17:21:21.698Z,102003.95
2018-10-04T17:23:48.638Z,102012.92
2018-10-04T17:26:15.586Z,101999.67
2018-10-04T17:28:42.545Z,102000.91
2018-10-04T17:31:09.477Z,102002.77
2018-10-04T17:33:36.391Z,102002.77
2018-10-04T17:36:03.335Z,102007.03
2018-10-04T17:38:30.230Z,101999.92
2018-10-04T17:40:57.147Z,102006.37
2018-10-04T17:43:24.054Z,102003.66
2018-10-04T17:45:51.018Z,101999.09
2018-10-04T17:48:17.921Z,102008.39
2018-10-04T17:50:44.869Z,101996.78
2018-10-04T17:53:11.803Z,102008.89
2018-10-04T17:55:38.790Z,102007.86
2018-10-04T17:58:05.733Z,102005.39
2018-10-04T18:00:32.693Z,102012.00
2018-10-04T18:02:59.605Z,102016.41
2018-10-04T18:05:26.506Z,102012.33
2018-10-04T18:07:53.421Z,102007.94
2018-10-04T18:10:20.367Z,102005.59
2018-10-04T18:12:47.318Z,102003.57
2018-10-04T18:15:14.245Z,102018.12
2018-10-04T18:17:41.141Z,102018.09
2018-10-04T18:20:08.161Z,102015.38
2018-10-04T18:22:35.074Z,102015.88
2018-10-04T18:25:02.005Z,102019.12
2018-10-04T18:27:28.944Z,102016.44
2018-10-04T18:29:55.866Z,102008.63
2018-10-04T18:32:22.818Z,102006.50
2018-10-04T18:34:49.770Z,102008.39
2018-10-04T18:37:16.702Z,101998.44
2018-10-04T18:39:43.634Z,102005.34
2018-10-04T18:42:10.573Z,102004.65
2018-10-04T18:44:37.488Z,101998.23
2018-10-04T18:47:04.509Z,101999.13
2018-10-04T18:49:31.442Z,101998.80
2018-10-04T18:51:58.381Z,102007.23
2018-10-04T18:54:25.293Z,102007.23
2018-10-04T18:56:52.352Z,102001.84
2018-10-04T18:59:19.277Z,101996.09
2018-10-04T19:01:46.503Z,102000.16
2018-10-04T19:04:13.434Z,102004.59
2018-10-04T19:06:40.578Z,101995.30
2018-10-04T19:09:08.767Z,102001.22
2018-10-04T19:11:36.002Z,102001.22
2018-10-04T19:14:02.954Z,101998.71
2018-10-04T19:16:30.640Z,102002.98
2018-10-04T19:18:57.563Z,102005.17
2018-10-04T19:21:24.514Z,102002.25
2018-10-04T19:23:51.429Z,102004.97
2018-10-04T19:26:18.390Z,102007.19
2018-10-04T19:28:45.310Z,102011.42
2018-10-04T19:31:12.237Z,102004.64
2018-10-04T19:33:39.149Z,102015.69
2018-10-04T19:36:06.095Z,102012.64
2018-10-04T19:38:33.000Z,102014.07
2018-10-04T19:40:59.921Z,102012.55
2018-10-04T19:43:26.824Z,102015.83
2018-10-04T19:45:53.821Z,102011.96
2018-10-04T19:48:21.340Z,102010.60
2018-10-04T19:50:48.265Z,102015.50
2018-10-04T19:53:15.181Z,102015.83
2018-10-04T19:55:42.090Z,102006.00
2018-10-04T19:58:09.004Z,102013.31
2018-10-04T20:00:35.933Z,102013.68
2018-10-04T20:03:02.874Z,102005.55
2018-10-04T20:05:29.765Z,102009.94
2018-10-04T20:07:56.705Z,102004.69
2018-10-04T20:10:23.635Z,102004.19
2018-10-04T20:12:50.553Z,102003.86
2018-10-04T20:15:17.469Z,102012.13
2018-10-04T20:17:44.393Z,102014.84
2018-10-04T20:20:11.522Z,102022.81
2018-10-04T20:22:38.485Z,102018.08
2018-10-04T20:25:05.406Z,102014.51
2018-10-04T20:27:32.345Z,102010.44
2018-10-04T20:29:59.351Z,102008.91
2018-10-04T20:32:26.325Z,102004.52
2018-10-04T20:34:54.318Z,102007.89
2018-10-04T20:37:21.197Z,102005.17
2018-10-04T20:39:48.110Z,102006.70
2018-10-04T20:42:15.029Z,102003.66
2018-10-04T20:44:41.939Z,102005.02
2018-10-04T20:47:08.845Z,101994.36
2018-10-04T20:49:35.765Z,101995.72
2018-10-04T20:52:02.717Z,101990.63
2018-10-04T20:54:29.622Z,101994.16
2018-10-04T20:56:56.560Z,101990.86
2018-10-04T20:59:23.466Z,101986.36
2018-10-04T21:01:50.383Z,101987.05
2018-10-04T21:04:17.278Z,101988.61
2018-10-04T21:06:44.306Z,101986.26
2018-10-04T21:09:11.724Z,101986.95
2018-10-04T21:11:39.608Z,101989.00
2018-10-04T21:14:06.514Z,101988.87
2018-10-04T21:16:33.418Z,101985.23
2018-10-04T21:19:00.361Z,101985.28
2018-10-04T21:21:27.305Z,101986.40
2018-10-04T21:23:54.227Z,101985.73
2018-10-04T21:26:21.149Z,101980.87
2018-10-04T21:28:48.073Z,101971.94
2018-10-04T21:31:14.993Z,101971.96
2018-10-04T21:33:41.934Z,101971.98
2018-10-04T21:36:08.869Z,101961.01
2018-10-04T21:38:35.825Z,101961.01
2018-10-04T21:41:02.746Z,101959.49
2018-10-04T21:43:29.645Z,101963.36
2018-10-04T21:45:56.581Z,101957.75
2018-10-04T21:48:23.589Z,101950.28
2018-10-04T21:50:50.513Z,101957.36
2018-10-04T21:53:17.454Z,101947.19
2018-10-04T21:55:44.393Z,101953.23
2018-10-04T21:58:11.349Z,101962.03
2018-10-04T22:00:44.098Z,101962.69
2018-10-04T22:03:11.030Z,101964.58
2018-10-04T22:05:37.957Z,101946.52
2018-10-04T22:08:04.905Z,101959.84
2018-10-04T22:10:31.813Z,101955.78
2018-10-04T22:12:58.713Z,101958.30
2018-10-04T22:15:25.669Z,101957.27
2018-10-04T22:17:53.325Z,101956.91
2018-10-04T22:20:20.232Z,101958.07
2018-10-04T22:22:47.149Z,101950.80
2018-10-04T22:25:14.533Z,101952.16
2018-10-04T22:27:41.469Z,101950.41
2018-10-04T22:30:08.421Z,101946.41
2018-10-04T22:32:35.410Z,101944.52
2018-10-04T22:35:02.493Z,101948.36
2018-10-04T22:37:29.401Z,101940.89
2018-10-04T22:39:56.325Z,101945.28
2018-10-04T22:42:23.841Z,101943.23
2018-10-04T22:44:51.556Z,101950.67
2018-10-04T22:47:18.479Z,101945.75
2018-10-04T22:49:46.238Z,101902.83
2018-10-04T22:52:13.178Z,101946.88
2018-10-04T22:54:40.138Z,101948.56
2018-10-04T22:57:07.254Z,101955.87
2018-10-04T22:59:34.417Z,101951.94
2018-10-04T23:02:01.361Z,101950.58
2018-10-04T23:04:28.594Z,101952.59
2018-10-04T23:06:55.512Z,101943.93
2018-10-04T23:09:22.537Z,101947.83
2018-10-04T23:11:49.568Z,101943.93
2018-10-04T23:14:16.589Z,101948.53
2018-10-04T23:16:43.501Z,101942.91
2018-10-04T23:19:10.421Z,101941.05
2018-10-04T23:21:37.342Z,101936.66
2018-10-04T23:24:04.513Z,101938.34
2018-10-04T23:26:31.837Z,101940.19
2018-10-04T23:28:58.773Z,101940.03
2018-10-04T23:31:25.873Z,101934.94
2018-10-04T23:33:53.113Z,101937.64
2018-10-04T23:36:20.072Z,101938.27
2018-10-04T23:38:47.037Z,101936.62
2018-10-04T23:41:13.995Z,101942.67
2018-10-04T23:43:41.063Z,101932.85
2018-10-04T23:46:08.330Z,101924.55
2018-10-04T23:48:35.801Z,101910.45
2018-10-04T23:51:02.916Z,101920.48
2018-10-04T23:53:29.880Z,101921.84
2018-10-04T23:55:56.910Z,101923.69
2018-10-04T23:58:27.033Z,101928.95
